^^
Grace C. Lehan Memorial Weather Station Historical Data
Daily Summary for October 10, 2021 Units:  Both    English   Metric
Daily Weekly Monthly Yearly
  High: Low: Average:
Temperature: 65 °F /  18.3 °C 54.7 °F /  12.6 °C 60.2 °F /  15.7 °C
Dew Point: 59.8 °F /  15.4 °C 52.5 °F /  11.4 °C 56.3 °F /  13.5 °C
Humidity: 93% 81% 87%
Wind Speed: 3.5mph /  5.6km/h - 0.5mph /  0.8km/h
Wind Gust: 13mph /  20.9km/h - -
Wind- - ESE
Pressure: 30.26 in /  1024.6 hPa 30.12 in /  1019.9 hPa -
Precipitation: 0.00 in /  0 mm    
 
 
Tabular Data for October 10, 2021
Time Temperature Dew Point Pressure Wind Wind Speed Wind Gust Humidity Rainfall Rate (Hourly) solar
00:09 59.2 °F /  15.1 °C 53.7 °F /  12.1 °C 30.26in /  1024.6hPa ENE 0.1mph /  0.2km/h 2mph /  3.2km/h 82% 0.00in /  0mm 0 W/m2
00:14 59.1 °F /  15.1 °C 53.7 °F /  12.1 °C 30.26in /  1024.6hPa Calm   2mph /  3.2km/h 82.2% 0.00in /  0mm 0 W/m2
00:19 59.1 °F /  15.1 °C 54 °F /  12.2 °C 30.26in /  1024.6hPa ENE 0.3mph /  0.5km/h 3mph /  4.8km/h 83% 0.00in /  0mm 0 W/m2
00:24 59 °F /  15 °C 53.9 °F /  12.2 °C 30.26in /  1024.6hPa ENE 0.4mph /  0.6km/h 3mph /  4.8km/h 83% 0.00in /  0mm 0 W/m2
00:29 59 °F /  15 °C 53.8 °F /  12.1 °C 30.26in /  1024.6hPa ENE 0.2mph /  0.3km/h 3mph /  4.8km/h 83% 0.00in /  0mm 0 W/m2
00:34 58.9 °F /  14.9 °C 53.8 °F /  12.1 °C 30.26in /  1024.6hPa ENE 0.2mph /  0.3km/h 3mph /  4.8km/h 83% 0.00in /  0mm 0 W/m2
00:39 58.9 °F /  14.9 °C 53.8 °F /  12.1 °C 30.26in /  1024.6hPa ENE 0.7mph /  1.1km/h 5mph /  8km/h 83.2% 0.00in /  0mm 0 W/m2
00:44 58.9 °F /  14.9 °C 53.9 °F /  12.2 °C 30.26in /  1024.6hPa ENE 0.5mph /  0.8km/h 5mph /  8km/h 83.5% 0.00in /  0mm 0 W/m2
00:49 58.8 °F /  14.9 °C 54 °F /  12.2 °C 30.26in /  1024.6hPa ENE 0.2mph /  0.3km/h 5mph /  8km/h 84% 0.00in /  0mm 0 W/m2
00:54 58.7 °F /  14.8 °C 53.9 °F /  12.2 °C 30.25in /  1024.3hPa ENE 1.2mph /  1.9km/h 6mph /  9.7km/h 84% 0.00in /  0mm 0 W/m2
00:59 58.7 °F /  14.8 °C 53.9 °F /  12.2 °C 30.25in /  1024.3hPa NE 0.3mph /  0.5km/h 6mph /  9.7km/h 84% 0.00in /  0mm 0 W/m2
01:04 58.6 °F /  14.8 °C 53.8 °F /  12.1 °C 30.25in /  1024.3hPa NE 0.1mph /  0.2km/h 6mph /  9.7km/h 84% 0.00in /  0mm 0 W/m2
01:09 58.6 °F /  14.8 °C 53.9 °F /  12.2 °C 30.25in /  1024.3hPa Calm   2mph /  3.2km/h 84.5% 0.00in /  0mm 0 W/m2
01:14 58.5 °F /  14.7 °C 54 °F /  12.2 °C 30.25in /  1024.3hPa Calm   2mph /  3.2km/h 85% 0.00in /  0mm 0 W/m2
01:19 58.5 °F /  14.7 °C 54 °F /  12.2 °C 30.25in /  1024.3hPa Calm   2mph /  3.2km/h 85% 0.00in /  0mm 0 W/m2
01:24 58.4 °F /  14.7 °C 53.9 °F /  12.2 °C 30.25in /  1024.3hPa ENE 0.2mph /  0.3km/h 3mph /  4.8km/h 85% 0.00in /  0mm 0 W/m2
01:29 58.3 °F /  14.6 °C 53.9 °F /  12.2 °C 30.25in /  1024.3hPa ENE 0.2mph /  0.3km/h 4mph /  6.4km/h 85% 0.00in /  0mm 0 W/m2
01:34 58.3 °F /  14.6 °C 54 °F /  12.2 °C 30.25in /  1024.3hPa NE 0.4mph /  0.6km/h 6mph /  9.7km/h 85.6% 0.00in /  0mm 0 W/m2
01:39 58.2 °F /  14.6 °C 54.1 °F /  12.3 °C 30.25in /  1024.3hPa NE 0.3mph /  0.5km/h 6mph /  9.7km/h 86% 0.00in /  0mm 0 W/m2
01:44 58.2 °F /  14.6 °C 54 °F /  12.2 °C 30.26in /  1024.6hPa NE 0.3mph /  0.5km/h 6mph /  9.7km/h 86% 0.00in /  0mm 0 W/m2
01:49 58.2 °F /  14.6 °C 54 °F /  12.2 °C 30.26in /  1024.6hPa ENE 0.2mph /  0.3km/h 6mph /  9.7km/h 86% 0.00in /  0mm 0 W/m2
01:54 58.1 °F /  14.5 °C 53.9 °F /  12.2 °C 30.26in /  1024.6hPa ENE 0.6mph /  1km/h 6mph /  9.7km/h 86% 0.00in /  0mm 0 W/m2
01:59 58.1 °F /  14.5 °C 53.9 °F /  12.2 °C 30.26in /  1024.6hPa NE 0.3mph /  0.5km/h 6mph /  9.7km/h 86% 0.00in /  0mm 0 W/m2
02:04 58.1 °F /  14.5 °C 53.9 °F /  12.2 °C 30.26in /  1024.6hPa ENE 0.4mph /  0.6km/h 6mph /  9.7km/h 86% 0.00in /  0mm 0 W/m2
02:09 58.1 °F /  14.5 °C 53.9 °F /  12.2 °C 30.26in /  1024.6hPa NE 1mph /  1.6km/h 6mph /  9.7km/h 86% 0.00in /  0mm 0 W/m2
02:14 58 °F /  14.4 °C 53.9 °F /  12.2 °C 30.25in /  1024.3hPa NE 0.2mph /  0.3km/h 6mph /  9.7km/h 86% 0.00in /  0mm 0 W/m2
02:19 58 °F /  14.4 °C 53.8 °F /  12.1 °C 30.25in /  1024.3hPa NE 1.2mph /  1.9km/h 6mph /  9.7km/h 86% 0.00in /  0mm 0 W/m2
02:24 58 °F /  14.4 °C 54 °F /  12.2 °C 30.25in /  1024.3hPa NE 0.5mph /  0.8km/h 6mph /  9.7km/h 86.4% 0.00in /  0mm 0 W/m2
02:29 58 °F /  14.4 °C 54.2 °F /  12.3 °C 30.25in /  1024.3hPa NE 1mph /  1.6km/h 6mph /  9.7km/h 87% 0.00in /  0mm 0 W/m2
02:34 57.9 °F /  14.4 °C 54.1 °F /  12.3 °C 30.25in /  1024.3hPa NE 0.4mph /  0.6km/h 6mph /  9.7km/h 87% 0.00in /  0mm 0 W/m2
02:39 57.9 °F /  14.4 °C 54.1 °F /  12.3 °C 30.25in /  1024.3hPa Calm   5mph /  8km/h 87% 0.00in /  0mm 0 W/m2
02:44 57.8 °F /  14.3 °C 54 °F /  12.2 °C 30.25in /  1024.3hPa ENE 1.9mph /  3.1km/h 7mph /  11.3km/h 87% 0.00in /  0mm 0 W/m2
02:49 57.8 °F /  14.3 °C 54 °F /  12.2 °C 30.25in /  1024.3hPa ENE 1.3mph /  2.1km/h 7mph /  11.3km/h 87% 0.00in /  0mm 0 W/m2
02:54 57.8 °F /  14.3 °C 54 °F /  12.2 °C 30.25in /  1024.3hPa NE 1.5mph /  2.4km/h 7mph /  11.3km/h 87% 0.00in /  0mm 0 W/m2
02:59 57.7 °F /  14.3 °C 53.9 °F /  12.2 °C 30.25in /  1024.3hPa NE 0.2mph /  0.3km/h 7mph /  11.3km/h 87% 0.00in /  0mm 0 W/m2
03:04 57.7 °F /  14.3 °C 54 °F /  12.2 °C 30.25in /  1024.3hPa Calm   7mph /  11.3km/h 87.5% 0.00in /  0mm 0 W/m2
03:09 57.7 °F /  14.3 °C 54.1 °F /  12.3 °C 30.25in /  1024.3hPa NE 0.3mph /  0.5km/h 5mph /  8km/h 87.8% 0.00in /  0mm 0 W/m2
03:14 57.6 °F /  14.2 °C 53.8 °F /  12.1 °C 30.25in /  1024.3hPa NE 0.3mph /  0.5km/h 5mph /  8km/h 87% 0.00in /  0mm 0 W/m2
03:19 57.6 °F /  14.2 °C 54 °F /  12.2 °C 30.25in /  1024.3hPa Calm   5mph /  8km/h 87.8% 0.00in /  0mm 0 W/m2
03:24 57.5 °F /  14.2 °C 54 °F /  12.2 °C 30.24in /  1023.9hPa Calm   5mph /  8km/h 88% 0.00in /  0mm 0 W/m2
03:29 57.5 °F /  14.2 °C 54 °F /  12.2 °C 30.24in /  1023.9hPa Calm   5mph /  8km/h 88% 0.00in /  0mm 0 W/m2
03:34 57.4 °F /  14.1 °C 53.9 °F /  12.2 °C 30.24in /  1023.9hPa Calm   5mph /  8km/h 88% 0.00in /  0mm 0 W/m2
03:39 57.4 °F /  14.1 °C 53.8 °F /  12.1 °C 30.24in /  1023.9hPa Calm   2mph /  3.2km/h 88% 0.00in /  0mm 0 W/m2
03:44 57.3 °F /  14.1 °C 53.9 °F /  12.2 °C 30.24in /  1023.9hPa NE 0.1mph /  0.2km/h 2mph /  3.2km/h 88.3% 0.00in /  0mm 0 W/m2
03:49 57.3 °F /  14.1 °C 53.9 °F /  12.2 °C 30.24in /  1023.9hPa NE 0.2mph /  0.3km/h 3mph /  4.8km/h 88.4% 0.00in /  0mm 0 W/m2
03:54 57.2 °F /  14 °C 53.9 °F /  12.2 °C 30.24in /  1023.9hPa Calm   3mph /  4.8km/h 88.7% 0.00in /  0mm 0 W/m2
03:59 57.2 °F /  14 °C 54 °F /  12.2 °C 30.24in /  1023.9hPa Calm   3mph /  4.8km/h 89% 0.00in /  0mm 0 W/m2
04:09 57.1 °F /  13.9 °C 53.9 °F /  12.2 °C 30.25in /  1024.3hPa Calm     89% 0.00in /  0mm 0 W/m2
04:14 57.1 °F /  13.9 °C 53.9 °F /  12.2 °C 30.25in /  1024.3hPa Calm     89% 0.00in /  0mm 0 W/m2
04:19 57.1 °F /  13.9 °C 53.9 °F /  12.2 °C 30.25in /  1024.3hPa Calm   2mph /  3.2km/h 89% 0.00in /  0mm 0 W/m2
04:24 57 °F /  13.9 °C 53.8 °F /  12.1 °C 30.24in /  1023.9hPa Calm   2mph /  3.2km/h 89% 0.00in /  0mm 0 W/m2
04:29 57 °F /  13.9 °C 53.8 °F /  12.1 °C 30.24in /  1023.9hPa NE 0.2mph /  0.3km/h 3mph /  4.8km/h 89% 0.00in /  0mm 0 W/m2
04:34 56.9 °F /  13.8 °C 53.7 °F /  12.1 °C 30.24in /  1023.9hPa Calm   3mph /  4.8km/h 89% 0.00in /  0mm 0 W/m2
04:39 56.8 °F /  13.8 °C 53.6 °F /  12 °C 30.25in /  1024.3hPa NNE 0.2mph /  0.3km/h 4mph /  6.4km/h 89% 0.00in /  0mm 0 W/m2
04:44 56.7 °F /  13.7 °C 53.5 °F /  11.9 °C 30.25in /  1024.3hPa Calm   4mph /  6.4km/h 89% 0.00in /  0mm 0 W/m2
04:49 56.6 °F /  13.7 °C 53.4 °F /  11.9 °C 30.24in /  1023.9hPa Calm   4mph /  6.4km/h 89% 0.00in /  0mm 0 W/m2
04:54 56.5 °F /  13.6 °C 53.4 °F /  11.9 °C 30.24in /  1023.9hPa Calm   4mph /  6.4km/h 89.5% 0.00in /  0mm 0 W/m2
04:59 56.4 °F /  13.6 °C 53.5 °F /  11.9 °C 30.24in /  1023.9hPa Calm   4mph /  6.4km/h 90% 0.00in /  0mm 0 W/m2
05:04 56.2 °F /  13.4 °C 53.3 °F /  11.8 °C 30.24in /  1023.9hPa Calm   4mph /  6.4km/h 90% 0.00in /  0mm 0 W/m2
05:09 56.1 °F /  13.4 °C 53.2 °F /  11.8 °C 30.24in /  1023.9hPa Calm     90% 0.00in /  0mm 0 W/m2
05:14 56 °F /  13.3 °C 53.1 °F /  11.7 °C 30.24in /  1023.9hPa NNE 0.2mph /  0.3km/h 5mph /  8km/h 90% 0.00in /  0mm 0 W/m2
05:19 55.9 °F /  13.3 °C 53 °F /  11.7 °C 30.24in /  1023.9hPa Calm   5mph /  8km/h 90% 0.00in /  0mm 0 W/m2
05:24 55.8 °F /  13.2 °C 52.9 °F /  11.6 °C 30.24in /  1023.9hPa NNE 0.1mph /  0.2km/h 5mph /  8km/h 90% 0.00in /  0mm 0 W/m2
05:29 55.7 °F /  13.2 °C 52.9 °F /  11.6 °C 30.24in /  1023.9hPa NNW 0.2mph /  0.3km/h 5mph /  8km/h 90.2% 0.00in /  0mm 0 W/m2
05:34 55.6 °F /  13.1 °C 52.9 °F /  11.6 °C 30.24in /  1023.9hPa Calm   5mph /  8km/h 90.5% 0.00in /  0mm 0 W/m2
05:39 55.5 °F /  13.1 °C 52.9 °F /  11.6 °C 30.23in /  1023.6hPa NW 0.2mph /  0.3km/h 3mph /  4.8km/h 91% 0.00in /  0mm 0 W/m2
05:44 55.4 °F /  13 °C 52.8 °F /  11.6 °C 30.23in /  1023.6hPa Calm   3mph /  4.8km/h 91% 0.00in /  0mm 0 W/m2
05:49 55.3 °F /  12.9 °C 52.7 °F /  11.5 °C 30.23in /  1023.6hPa Calm   3mph /  4.8km/h 91% 0.00in /  0mm 0 W/m2
05:54 55.2 °F /  12.9 °C 52.7 °F /  11.5 °C 30.23in /  1023.6hPa Calm   3mph /  4.8km/h 91% 0.00in /  0mm 0 W/m2
05:59 55.1 °F /  12.8 °C 52.6 °F /  11.4 °C 30.23in /  1023.6hPa NW 0.2mph /  0.3km/h 3mph /  4.8km/h 91% 0.00in /  0mm 0 W/m2
06:04 55.1 °F /  12.8 °C 52.5 °F /  11.4 °C 30.23in /  1023.6hPa NW 0.2mph /  0.3km/h 4mph /  6.4km/h 91% 0.00in /  0mm 0 W/m2
06:09 55 °F /  12.8 °C 52.5 °F /  11.4 °C 30.23in /  1023.6hPa Calm   4mph /  6.4km/h 91.3% 0.00in /  0mm 0 W/m2
06:14 54.9 °F /  12.7 °C 52.7 °F /  11.5 °C 30.23in /  1023.6hPa North 0.1mph /  0.2km/h 4mph /  6.4km/h 92% 0.00in /  0mm 0 W/m2
06:19 54.9 °F /  12.7 °C 52.6 °F /  11.4 °C 30.23in /  1023.6hPa North 0.1mph /  0.2km/h 4mph /  6.4km/h 92% 0.00in /  0mm 0 W/m2
06:24 54.8 °F /  12.7 °C 52.5 °F /  11.4 °C 30.23in /  1023.6hPa Calm   4mph /  6.4km/h 92% 0.00in /  0mm 0 W/m2
06:29 54.8 °F /  12.7 °C 52.5 °F /  11.4 °C 30.23in /  1023.6hPa North 0.1mph /  0.2km/h 4mph /  6.4km/h 92% 0.00in /  0mm 0 W/m2
06:34 54.8 °F /  12.7 °C 52.5 °F /  11.4 °C 30.23in /  1023.6hPa Calm   4mph /  6.4km/h 92% 0.00in /  0mm 0 W/m2
06:39 54.8 °F /  12.7 °C 52.5 °F /  11.4 °C 30.23in /  1023.6hPa NW 0.6mph /  1km/h 6mph /  9.7km/h 92% 0.00in /  0mm 0 W/m2
06:44 54.8 °F /  12.7 °C 52.5 °F /  11.4 °C 30.23in /  1023.6hPa Calm   6mph /  9.7km/h 92% 0.00in /  0mm 0 W/m2
06:49 54.7 °F /  12.6 °C 52.5 °F /  11.4 °C 30.23in /  1023.6hPa North 0.8mph /  1.3km/h 7mph /  11.3km/h 92% 0.00in /  0mm 0 W/m2
06:54 54.7 °F /  12.6 °C 52.5 °F /  11.4 °C 30.23in /  1023.6hPa NNE 0.2mph /  0.3km/h 7mph /  11.3km/h 92% 0.00in /  0mm 0 W/m2
06:59 54.7 °F /  12.6 °C 52.5 °F /  11.4 °C 30.23in /  1023.6hPa NNE 0.5mph /  0.8km/h 7mph /  11.3km/h 92.2% 0.00in /  0mm 0 W/m2
07:04 54.7 °F /  12.6 °C 52.7 °F /  11.5 °C 30.23in /  1023.6hPa NNE 0.2mph /  0.3km/h 7mph /  11.3km/h 93% 0.00in /  0mm 0 W/m2
07:09 54.7 °F /  12.6 °C 52.7 °F /  11.5 °C 30.23in /  1023.6hPa Calm   4mph /  6.4km/h 93% 0.00in /  0mm 0 W/m2
07:14 54.8 °F /  12.7 °C 52.8 °F /  11.6 °C 30.24in /  1023.9hPa NNE 0.1mph /  0.2km/h 4mph /  6.4km/h 93% 0.00in /  0mm 5 W/m2
07:19 54.8 °F /  12.7 °C 52.8 °F /  11.6 °C 30.24in /  1023.9hPa Calm   4mph /  6.4km/h 93% 0.00in /  0mm 7 W/m2
07:24 54.9 °F /  12.7 °C 52.9 °F /  11.6 °C 30.24in /  1023.9hPa NNE 0.4mph /  0.6km/h 4mph /  6.4km/h 93% 0.00in /  0mm 9 W/m2
07:29 55 °F /  12.8 °C 53 °F /  11.7 °C 30.24in /  1023.9hPa NNW 0.1mph /  0.2km/h 4mph /  6.4km/h 93% 0.00in /  0mm 11 W/m2
07:34 55 °F /  12.8 °C 53 °F /  11.7 °C 30.24in /  1023.9hPa NNW 0.2mph /  0.3km/h 4mph /  6.4km/h 93% 0.00in /  0mm 12 W/m2
07:39 55.1 °F /  12.8 °C 53.1 °F /  11.7 °C 30.24in /  1023.9hPa NNW 0.5mph /  0.8km/h 4mph /  6.4km/h 93% 0.00in /  0mm 14 W/m2
07:44 55.1 °F /  12.8 °C 53.2 °F /  11.8 °C 30.24in /  1023.9hPa NNW 0.3mph /  0.5km/h 5mph /  8km/h 93% 0.00in /  0mm 14 W/m2
07:49 55.3 °F /  12.9 °C 53.3 °F /  11.8 °C 30.24in /  1023.9hPa NNE 0.1mph /  0.2km/h 5mph /  8km/h 93% 0.00in /  0mm 18 W/m2
07:54 55.3 °F /  12.9 °C 53.3 °F /  11.8 °C 30.24in /  1023.9hPa NE 0.1mph /  0.2km/h 5mph /  8km/h 93% 0.00in /  0mm 19 W/m2
07:59 55.4 °F /  13 °C 53.4 °F /  11.9 °C 30.24in /  1023.9hPa NE 0.4mph /  0.6km/h 5mph /  8km/h 93% 0.00in /  0mm 19 W/m2
08:00 55.5 °F /  13.1 °C 53.5 °F /  11.9 °C 30.24in /  1023.9hPa Calm   5mph /  8km/h 93% 0.00in /  0mm 19 W/m2
08:09 55.7 °F /  13.2 °C 53.7 °F /  12.1 °C 30.24in /  1023.9hPa Calm   2mph /  3.2km/h 93% 0.00in /  0mm 35 W/m2
08:14 55.8 °F /  13.2 °C 53.8 °F /  12.1 °C 30.24in /  1023.9hPa NNW 0.7mph /  1.1km/h 6mph /  9.7km/h 93% 0.00in /  0mm 35 W/m2
08:19 55.9 °F /  13.3 °C 53.9 °F /  12.2 °C 30.24in /  1023.9hPa NNW 0.3mph /  0.5km/h 9mph /  14.5km/h 93% 0.00in /  0mm 37 W/m2
08:24 56 °F /  13.3 °C 54 °F /  12.2 °C 30.24in /  1023.9hPa NW 0.5mph /  0.8km/h 9mph /  14.5km/h 93% 0.00in /  0mm 42 W/m2
08:29 56.1 °F /  13.4 °C 54 °F /  12.2 °C 30.24in /  1023.9hPa Calm   9mph /  14.5km/h 92.6% 0.00in /  0mm 44 W/m2
08:34 56.3 °F /  13.5 °C 54 °F /  12.2 °C 30.24in /  1023.9hPa Calm   9mph /  14.5km/h 92.1% 0.00in /  0mm 47 W/m2
08:39 56.5 °F /  13.6 °C 54.4 °F /  12.4 °C 30.24in /  1023.9hPa NW 0.1mph /  0.2km/h 3mph /  4.8km/h 92.6% 0.00in /  0mm 46 W/m2
08:44 56.6 °F /  13.7 °C 54.3 °F /  12.4 °C 30.25in /  1024.3hPa Calm   3mph /  4.8km/h 92% 0.00in /  0mm 42 W/m2
08:49 56.7 °F /  13.7 °C 54.4 °F /  12.4 °C 30.25in /  1024.3hPa Calm   3mph /  4.8km/h 92% 0.00in /  0mm 42 W/m2
08:54 56.8 °F /  13.8 °C 54.5 °F /  12.5 °C 30.25in /  1024.3hPa NNW 0.5mph /  0.8km/h 6mph /  9.7km/h 92% 0.00in /  0mm 44 W/m2
08:59 56.9 °F /  13.8 °C 54.6 °F /  12.6 °C 30.25in /  1024.3hPa Calm   6mph /  9.7km/h 92% 0.00in /  0mm 46 W/m2
09:04 57.2 °F /  14 °C 54.9 °F /  12.7 °C 30.25in /  1024.3hPa Calm   6mph /  9.7km/h 92% 0.00in /  0mm 47 W/m2
09:09 57.3 °F /  14.1 °C 54.9 °F /  12.7 °C 30.25in /  1024.3hPa NNW 0.6mph /  1km/h 5mph /  8km/h 91.7% 0.00in /  0mm 54 W/m2
09:14 57.4 °F /  14.1 °C 55 °F /  12.8 °C 30.25in /  1024.3hPa North 0.2mph /  0.3km/h 5mph /  8km/h 91.7% 0.00in /  0mm 58 W/m2
09:19 57.5 °F /  14.2 °C 54.9 °F /  12.7 °C 30.25in /  1024.3hPa North 0.3mph /  0.5km/h 5mph /  8km/h 91% 0.00in /  0mm 67 W/m2
09:24 57.7 °F /  14.3 °C 55.1 °F /  12.8 °C 30.25in /  1024.3hPa North 0.5mph /  0.8km/h 6mph /  9.7km/h 91% 0.00in /  0mm 70 W/m2
09:29 57.8 °F /  14.3 °C 55.2 °F /  12.9 °C 30.25in /  1024.3hPa NNW 0.2mph /  0.3km/h 6mph /  9.7km/h 91% 0.00in /  0mm 67 W/m2
09:34 58 °F /  14.4 °C 55.4 °F /  13 °C 30.25in /  1024.3hPa NNW 0.2mph /  0.3km/h 6mph /  9.7km/h 91% 0.00in /  0mm 77 W/m2
09:39 58.2 °F /  14.6 °C 55.4 °F /  13 °C 30.24in /  1023.9hPa NNW 0.7mph /  1.1km/h 6mph /  9.7km/h 90.4% 0.00in /  0mm 84 W/m2
09:44 58.3 °F /  14.6 °C 55.6 °F /  13.1 °C 30.24in /  1023.9hPa NNE 0.4mph /  0.6km/h 6mph /  9.7km/h 90.8% 0.00in /  0mm 88 W/m2
09:49 58.4 °F /  14.7 °C 55.5 °F /  13.1 °C 30.25in /  1024.3hPa NE 0.2mph /  0.3km/h 6mph /  9.7km/h 90.2% 0.00in /  0mm 86 W/m2
09:54 58.5 °F /  14.7 °C 55.4 °F /  13 °C 30.25in /  1024.3hPa NE 0.1mph /  0.2km/h 6mph /  9.7km/h 89.4% 0.00in /  0mm 83 W/m2
09:59 58.7 °F /  14.8 °C 55.4 °F /  13 °C 30.25in /  1024.3hPa North 0.2mph /  0.3km/h 6mph /  9.7km/h 89% 0.00in /  0mm 81 W/m2
10:04 58.9 °F /  14.9 °C 55.8 °F /  13.2 °C 30.25in /  1024.3hPa NNW 0.2mph /  0.3km/h 6mph /  9.7km/h 89.3% 0.00in /  0mm 93 W/m2
10:09 59.1 °F /  15.1 °C 55.8 °F /  13.2 °C 30.24in /  1023.9hPa NNW 0.2mph /  0.3km/h 6mph /  9.7km/h 89% 0.00in /  0mm 113 W/m2
10:14 59.2 °F /  15.1 °C 56 °F /  13.3 °C 30.24in /  1023.9hPa NNW 0.9mph /  1.4km/h 6mph /  9.7km/h 89% 0.00in /  0mm 113 W/m2
10:19 59.3 °F /  15.2 °C 55.8 °F /  13.2 °C 30.24in /  1023.9hPa NNE 0.5mph /  0.8km/h 6mph /  9.7km/h 88.1% 0.00in /  0mm 102 W/m2
10:24 59.5 °F /  15.3 °C 56 °F /  13.3 °C 30.24in /  1023.9hPa East 0.3mph /  0.5km/h 6mph /  9.7km/h 88.2% 0.00in /  0mm 111 W/m2
10:29 59.7 °F /  15.4 °C 56.1 °F /  13.4 °C 30.24in /  1023.9hPa Calm   6mph /  9.7km/h 88% 0.00in /  0mm 109 W/m2
10:34 59.8 °F /  15.4 °C 56.2 °F /  13.4 °C 30.24in /  1023.9hPa ENE 0.6mph /  1km/h 6mph /  9.7km/h 88% 0.00in /  0mm 109 W/m2
10:39 59.9 °F /  15.5 °C 56.1 °F /  13.4 °C 30.24in /  1023.9hPa ENE 2.8mph /  4.5km/h 7mph /  11.3km/h 87.3% 0.00in /  0mm 107 W/m2
10:44 60 °F /  15.6 °C 56.1 °F /  13.4 °C 30.24in /  1023.9hPa ENE 0.3mph /  0.5km/h 7mph /  11.3km/h 87% 0.00in /  0mm 79 W/m2
10:49 60 °F /  15.6 °C 56.1 °F /  13.4 °C 30.24in /  1023.9hPa ENE 0.4mph /  0.6km/h 7mph /  11.3km/h 87% 0.00in /  0mm 81 W/m2
10:54 60 °F /  15.6 °C 56.1 °F /  13.4 °C 30.24in /  1023.9hPa NE 0.5mph /  0.8km/h 7mph /  11.3km/h 87% 0.00in /  0mm 72 W/m2
10:59 60.1 °F /  15.6 °C 56.2 °F /  13.4 °C 30.23in /  1023.6hPa NNE 0.2mph /  0.3km/h 7mph /  11.3km/h 87.1% 0.00in /  0mm 79 W/m2
11:04 60.1 °F /  15.6 °C 56.4 °F /  13.6 °C 30.23in /  1023.6hPa NE 0.5mph /  0.8km/h 7mph /  11.3km/h 87.7% 0.00in /  0mm 79 W/m2
11:09 60.2 °F /  15.7 °C 56.6 °F /  13.7 °C 30.23in /  1023.6hPa ENE 0.2mph /  0.3km/h 5mph /  8km/h 87.8% 0.00in /  0mm 74 W/m2
11:14 60.3 °F /  15.7 °C 56.6 °F /  13.7 °C 30.23in /  1023.6hPa Calm   5mph /  8km/h 87.7% 0.00in /  0mm 67 W/m2
11:19 60.4 °F /  15.8 °C 56.9 °F /  13.8 °C 30.23in /  1023.6hPa Calm   5mph /  8km/h 88% 0.00in /  0mm 88 W/m2
11:24 60.6 °F /  15.9 °C 57 °F /  13.9 °C 30.23in /  1023.6hPa Calm   5mph /  8km/h 88% 0.00in /  0mm 105 W/m2
11:29 60.7 °F /  15.9 °C 57.2 °F /  14 °C 30.23in /  1023.6hPa ENE 0.6mph /  1km/h 5mph /  8km/h 88% 0.00in /  0mm 125 W/m2
11:34 60.9 °F /  16.1 °C 57 °F /  13.9 °C 30.22in /  1023.2hPa ENE 0.4mph /  0.6km/h 5mph /  8km/h 87.1% 0.00in /  0mm 125 W/m2
11:39 61 °F /  16.1 °C 57.1 °F /  13.9 °C 30.22in /  1023.2hPa ENE 0.2mph /  0.3km/h 4mph /  6.4km/h 87% 0.00in /  0mm 114 W/m2
11:44 61.1 °F /  16.2 °C 57.2 °F /  14 °C 30.22in /  1023.2hPa Calm   4mph /  6.4km/h 87% 0.00in /  0mm 130 W/m2
11:49 61.4 °F /  16.3 °C 57.6 °F /  14.2 °C 30.21in /  1022.9hPa NE 0.7mph /  1.1km/h 4mph /  6.4km/h 87.3% 0.00in /  0mm 127 W/m2
11:54 61.6 °F /  16.4 °C 57.7 °F /  14.3 °C 30.21in /  1022.9hPa North 0.6mph /  1km/h 7mph /  11.3km/h 87% 0.00in /  0mm 116 W/m2
11:59 61.7 °F /  16.5 °C 57.6 °F /  14.2 °C 30.20in /  1022.6hPa North 0.2mph /  0.3km/h 7mph /  11.3km/h 86.4% 0.00in /  0mm 95 W/m2
12:00 61.8 °F /  16.6 °C 57.6 °F /  14.2 °C 30.20in /  1022.6hPa Calm   7mph /  11.3km/h 86% 0.00in /  0mm 69 W/m2
12:09 61.8 °F /  16.6 °C 57.7 °F /  14.3 °C 30.21in /  1022.9hPa Calm     86.4% 0.00in /  0mm 79 W/m2
12:14 62 °F /  16.7 °C 58 °F /  14.4 °C 30.21in /  1022.9hPa Calm     86.8% 0.00in /  0mm 91 W/m2
12:19 62.1 °F /  16.7 °C 58 °F /  14.4 °C 30.21in /  1022.9hPa ENE 0.3mph /  0.5km/h 4mph /  6.4km/h 86.5% 0.00in /  0mm 91 W/m2
12:24 62.1 °F /  16.7 °C 57.9 °F /  14.4 °C 30.21in /  1022.9hPa ENE 0.5mph /  0.8km/h 4mph /  6.4km/h 86% 0.00in /  0mm 113 W/m2
12:29 62.2 °F /  16.8 °C 58.2 °F /  14.6 °C 30.21in /  1022.9hPa ENE 0.3mph /  0.5km/h 4mph /  6.4km/h 86.6% 0.00in /  0mm 114 W/m2
12:34 62.4 °F /  16.9 °C 58.3 °F /  14.6 °C 30.21in /  1022.9hPa ENE 0.2mph /  0.3km/h 4mph /  6.4km/h 86.4% 0.00in /  0mm 97 W/m2
12:39 62.6 °F /  17 °C 58.3 °F /  14.6 °C 30.21in /  1022.9hPa ENE 0.7mph /  1.1km/h 5mph /  8km/h 86.1% 0.00in /  0mm 97 W/m2
12:44 62.6 °F /  17 °C 58.4 °F /  14.7 °C 30.20in /  1022.6hPa ENE 1.7mph /  2.7km/h 6mph /  9.7km/h 86% 0.00in /  0mm 134 W/m2
12:49 62.8 °F /  17.1 °C 58.5 °F /  14.7 °C 30.20in /  1022.6hPa East 0.2mph /  0.3km/h 6mph /  9.7km/h 86% 0.00in /  0mm 144 W/m2
12:54 63 °F /  17.2 °C 58.8 °F /  14.9 °C 30.20in /  1022.6hPa East 0.1mph /  0.2km/h 6mph /  9.7km/h 86.2% 0.00in /  0mm 128 W/m2
12:59 63.2 °F /  17.3 °C 59 °F /  15 °C 30.21in /  1022.9hPa ENE 0.1mph /  0.2km/h 6mph /  9.7km/h 86.1% 0.00in /  0mm 104 W/m2
13:04 63.4 °F /  17.4 °C 59.2 °F /  15.1 °C 30.21in /  1022.9hPa ENE 0.1mph /  0.2km/h 6mph /  9.7km/h 86.1% 0.00in /  0mm 111 W/m2
13:09 63.6 °F /  17.6 °C 59.2 °F /  15.1 °C 30.20in /  1022.6hPa NE 0.8mph /  1.3km/h 7mph /  11.3km/h 85.7% 0.00in /  0mm 114 W/m2
13:14 63.6 °F /  17.6 °C 59 °F /  15 °C 30.20in /  1022.6hPa ENE 0.2mph /  0.3km/h 7mph /  11.3km/h 85% 0.00in /  0mm 109 W/m2
13:19 63.6 °F /  17.6 °C 59.1 °F /  15.1 °C 30.20in /  1022.6hPa ENE 0.5mph /  0.8km/h 7mph /  11.3km/h 85% 0.00in /  0mm 97 W/m2
13:24 63.7 °F /  17.6 °C 59.1 °F /  15.1 °C 30.20in /  1022.6hPa Calm   7mph /  11.3km/h 85% 0.00in /  0mm 83 W/m2
13:29 63.7 °F /  17.6 °C 59.1 °F /  15.1 °C 30.20in /  1022.6hPa Calm   7mph /  11.3km/h 85% 0.00in /  0mm 81 W/m2
13:34 63.8 °F /  17.7 °C 59.2 °F /  15.1 °C 30.20in /  1022.6hPa NE 0.3mph /  0.5km/h 7mph /  11.3km/h 85% 0.00in /  0mm 91 W/m2
13:39 63.8 °F /  17.7 °C 59.3 °F /  15.2 °C 30.20in /  1022.6hPa NE 0.3mph /  0.5km/h 4mph /  6.4km/h 85.4% 0.00in /  0mm 95 W/m2
13:44 63.9 °F /  17.7 °C 59.3 °F /  15.2 °C 30.20in /  1022.6hPa NE 0.4mph /  0.6km/h 5mph /  8km/h 85% 0.00in /  0mm 84 W/m2
13:49 64 °F /  17.8 °C 59.5 °F /  15.3 °C 30.19in /  1022.2hPa ENE 0.2mph /  0.3km/h 5mph /  8km/h 85.2% 0.00in /  0mm 79 W/m2
13:54 64.1 °F /  17.8 °C 59.5 °F /  15.3 °C 30.19in /  1022.2hPa East 0.2mph /  0.3km/h 5mph /  8km/h 85% 0.00in /  0mm 83 W/m2
13:59 64.1 °F /  17.8 °C 59.5 °F /  15.3 °C 30.19in /  1022.2hPa East 0.2mph /  0.3km/h 5mph /  8km/h 85% 0.00in /  0mm 70 W/m2
14:04 64.2 °F /  17.9 °C 59.6 °F /  15.3 °C 30.19in /  1022.2hPa East 0.1mph /  0.2km/h 5mph /  8km/h 85% 0.00in /  0mm 67 W/m2
14:09 64.3 °F /  17.9 °C 59.7 °F /  15.4 °C 30.19in /  1022.2hPa Calm   2mph /  3.2km/h 85% 0.00in /  0mm 63 W/m2
14:14 64.4 °F /  18 °C 59.8 °F /  15.4 °C 30.19in /  1022.2hPa East 0.2mph /  0.3km/h 3mph /  4.8km/h 85% 0.00in /  0mm 53 W/m2
14:19 64.3 °F /  17.9 °C 59.5 °F /  15.3 °C 30.18in /  1021.9hPa Calm   3mph /  4.8km/h 84.4% 0.00in /  0mm 53 W/m2
14:24 64.3 °F /  17.9 °C 59.6 °F /  15.3 °C 30.19in /  1022.2hPa East 0.7mph /  1.1km/h 4mph /  6.4km/h 84.8% 0.00in /  0mm 44 W/m2
14:29 64.2 °F /  17.9 °C 59.6 °F /  15.3 °C 30.19in /  1022.2hPa Calm   4mph /  6.4km/h 85% 0.00in /  0mm 42 W/m2
14:34 64.2 °F /  17.9 °C 59.6 °F /  15.3 °C 30.18in /  1021.9hPa Calm   4mph /  6.4km/h 85% 0.00in /  0mm 47 W/m2
14:39 64.2 °F /  17.9 °C 59.7 °F /  15.4 °C 30.18in /  1021.9hPa ENE 0.2mph /  0.3km/h 4mph /  6.4km/h 85.2% 0.00in /  0mm 46 W/m2
14:44 64.2 °F /  17.9 °C 59.6 °F /  15.3 °C 30.18in /  1021.9hPa ENE 0.6mph /  1km/h 5mph /  8km/h 85% 0.00in /  0mm 58 W/m2
14:49 64.3 °F /  17.9 °C 59.6 °F /  15.3 °C 30.18in /  1021.9hPa East 0.7mph /  1.1km/h 5mph /  8km/h 84.9% 0.00in /  0mm 65 W/m2
14:54 64.3 °F /  17.9 °C 59.4 °F /  15.2 °C 30.18in /  1021.9hPa ENE 1.6mph /  2.6km/h 10mph /  16.1km/h 84% 0.00in /  0mm 70 W/m2
14:59 64.4 °F /  18 °C 59.3 °F /  15.2 °C 30.18in /  1021.9hPa East 1.7mph /  2.7km/h 10mph /  16.1km/h 83.6% 0.00in /  0mm 72 W/m2
15:04 64.5 °F /  18.1 °C 59.2 °F /  15.1 °C 30.18in /  1021.9hPa NE 1.7mph /  2.7km/h 10mph /  16.1km/h 83.2% 0.00in /  0mm 62 W/m2
15:09 64.5 °F /  18.1 °C 59.2 °F /  15.1 °C 30.18in /  1021.9hPa ENE 0.9mph /  1.4km/h 8mph /  12.9km/h 83% 0.00in /  0mm 70 W/m2
15:14 64.6 °F /  18.1 °C 59.3 °F /  15.2 °C 30.17in /  1021.6hPa East 1.7mph /  2.7km/h 8mph /  12.9km/h 83% 0.00in /  0mm 67 W/m2
15:19 64.6 °F /  18.1 °C 59.3 °F /  15.2 °C 30.17in /  1021.6hPa ENE 0.9mph /  1.4km/h 8mph /  12.9km/h 82.8% 0.00in /  0mm 65 W/m2
15:24 64.6 °F /  18.1 °C 59.3 °F /  15.2 °C 30.17in /  1021.6hPa ENE 2.5mph /  4km/h 8mph /  12.9km/h 83% 0.00in /  0mm 69 W/m2
15:29 64.6 °F /  18.1 °C 59.2 °F /  15.1 °C 30.17in /  1021.6hPa NE 3mph /  4.8km/h 9mph /  14.5km/h 82.4% 0.00in /  0mm 69 W/m2
15:34 64.7 °F /  18.2 °C 59.2 °F /  15.1 °C 30.17in /  1021.6hPa ENE 2.7mph /  4.3km/h 10mph /  16.1km/h 82.5% 0.00in /  0mm 77 W/m2
15:39 64.7 °F /  18.2 °C 59.1 °F /  15.1 °C 30.17in /  1021.6hPa ENE 3.1mph /  5km/h 10mph /  16.1km/h 82% 0.00in /  0mm 77 W/m2
15:44 64.8 °F /  18.2 °C 59.2 °F /  15.1 °C 30.17in /  1021.6hPa NE 2.9mph /  4.7km/h 13mph /  20.9km/h 82% 0.00in /  0mm 69 W/m2
15:49 64.9 °F /  18.3 °C 59.2 °F /  15.1 °C 30.17in /  1021.6hPa ENE 3.2mph /  5.1km/h 13mph /  20.9km/h 82% 0.00in /  0mm 67 W/m2
15:54 64.9 °F /  18.3 °C 59.3 °F /  15.2 °C 30.17in /  1021.6hPa East 0.8mph /  1.3km/h 13mph /  20.9km/h 82% 0.00in /  0mm 63 W/m2
15:59 65 °F /  18.3 °C 59.3 °F /  15.2 °C 30.17in /  1021.6hPa ENE 1.6mph /  2.6km/h 13mph /  20.9km/h 81.9% 0.00in /  0mm 77 W/m2
16:09 65 °F /  18.3 °C 59.1 °F /  15.1 °C 30.16in /  1021.2hPa ENE 2.1mph /  3.4km/h 9mph /  14.5km/h 81.3% 0.00in /  0mm 63 W/m2
16:14 64.9 °F /  18.3 °C 59 °F /  15 °C 30.16in /  1021.2hPa ENE 2.2mph /  3.5km/h 9mph /  14.5km/h 81% 0.00in /  0mm 56 W/m2
16:19 64.9 °F /  18.3 °C 58.9 °F /  14.9 °C 30.16in /  1021.2hPa ENE 1.3mph /  2.1km/h 9mph /  14.5km/h 81% 0.00in /  0mm 56 W/m2
16:24 64.8 °F /  18.2 °C 58.9 °F /  14.9 °C 30.16in /  1021.2hPa East 2.7mph /  4.3km/h 9mph /  14.5km/h 81% 0.00in /  0mm 54 W/m2
16:29 64.8 °F /  18.2 °C 58.8 °F /  14.9 °C 30.16in /  1021.2hPa NE 3.5mph /  5.6km/h 11mph /  17.7km/h 81% 0.00in /  0mm 53 W/m2
16:34 64.8 °F /  18.2 °C 58.8 °F /  14.9 °C 30.16in /  1021.2hPa NE 1.6mph /  2.6km/h 11mph /  17.7km/h 81% 0.00in /  0mm 49 W/m2
16:39 64.7 °F /  18.2 °C 58.7 °F /  14.8 °C 30.16in /  1021.2hPa ENE 3mph /  4.8km/h 10mph /  16.1km/h 81% 0.00in /  0mm 53 W/m2
16:44 64.7 °F /  18.2 °C 58.7 °F /  14.8 °C 30.16in /  1021.2hPa ENE 1.5mph /  2.4km/h 10mph /  16.1km/h 81% 0.00in /  0mm 58 W/m2
16:49 64.7 °F /  18.2 °C 58.7 °F /  14.8 °C 30.15in /  1020.9hPa NE 1.8mph /  2.9km/h 10mph /  16.1km/h 81% 0.00in /  0mm 65 W/m2
16:54 64.7 °F /  18.2 °C 58.7 °F /  14.8 °C 30.15in /  1020.9hPa ENE 1.4mph /  2.3km/h 10mph /  16.1km/h 81% 0.00in /  0mm 58 W/m2
16:59 64.7 °F /  18.2 °C 58.8 °F /  14.9 °C 30.15in /  1020.9hPa ENE 0.7mph /  1.1km/h 10mph /  16.1km/h 81.2% 0.00in /  0mm 47 W/m2
17:04 64.7 °F /  18.2 °C 58.9 °F /  14.9 °C 30.15in /  1020.9hPa NE 0.9mph /  1.4km/h 10mph /  16.1km/h 81.5% 0.00in /  0mm 44 W/m2
17:09 64.6 °F /  18.1 °C 58.6 °F /  14.8 °C 30.15in /  1020.9hPa NE 1.1mph /  1.8km/h 6mph /  9.7km/h 81% 0.00in /  0mm 39 W/m2
17:14 64.5 °F /  18.1 °C 58.6 °F /  14.8 °C 30.15in /  1020.9hPa NE 1.7mph /  2.7km/h 7mph /  11.3km/h 81% 0.00in /  0mm 35 W/m2
17:19 64.5 °F /  18.1 °C 58.6 °F /  14.8 °C 30.16in /  1021.2hPa NE 1.3mph /  2.1km/h 7mph /  11.3km/h 81.3% 0.00in /  0mm 26 W/m2
17:24 64.4 °F /  18 °C 58.6 °F /  14.8 °C 30.16in /  1021.2hPa NNE 0.5mph /  0.8km/h 7mph /  11.3km/h 81.6% 0.00in /  0mm 18 W/m2
17:29 64.3 °F /  17.9 °C 58.6 °F /  14.8 °C 30.16in /  1021.2hPa ENE 0.5mph /  0.8km/h 7mph /  11.3km/h 81.8% 0.00in /  0mm 14 W/m2
17:34 64.1 °F /  17.8 °C 58.5 °F /  14.7 °C 30.16in /  1021.2hPa NE 1.3mph /  2.1km/h 7mph /  11.3km/h 82% 0.00in /  0mm 12 W/m2
17:39 64 °F /  17.8 °C 58.4 °F /  14.7 °C 30.16in /  1021.2hPa NE 1.7mph /  2.7km/h 7mph /  11.3km/h 82% 0.00in /  0mm 9 W/m2
17:44 63.9 °F /  17.7 °C 58.3 °F /  14.6 °C 30.16in /  1021.2hPa ENE 0.6mph /  1km/h 7mph /  11.3km/h 82% 0.00in /  0mm 7 W/m2
17:49 63.8 °F /  17.7 °C 58.2 °F /  14.6 °C 30.16in /  1021.2hPa ENE 0.1mph /  0.2km/h 7mph /  11.3km/h 82% 0.00in /  0mm 7 W/m2
17:54 63.7 °F /  17.6 °C 58.1 °F /  14.5 °C 30.16in /  1021.2hPa ENE 0.4mph /  0.6km/h 7mph /  11.3km/h 82% 0.00in /  0mm 7 W/m2
17:59 63.6 °F /  17.6 °C 58.2 °F /  14.6 °C 30.16in /  1021.2hPa ENE 0.4mph /  0.6km/h 7mph /  11.3km/h 82.7% 0.00in /  0mm 7 W/m2
18:04 63.6 °F /  17.6 °C 58.3 °F /  14.6 °C 30.16in /  1021.2hPa ENE 0.1mph /  0.2km/h 7mph /  11.3km/h 83% 0.00in /  0mm 5 W/m2
18:09 63.5 °F /  17.5 °C 58.3 °F /  14.6 °C 30.16in /  1021.2hPa Calm   2mph /  3.2km/h 83% 0.00in /  0mm 0 W/m2
18:39 63.1 °F /  17.3 °C 58.2 °F /  14.6 °C 30.15in /  1020.9hPa ENE 0.4mph /  0.6km/h 3mph /  4.8km/h 84% 0.00in /  0mm 0 W/m2
18:44 63 °F /  17.2 °C 58.1 °F /  14.5 °C 30.15in /  1020.9hPa ENE 0.4mph /  0.6km/h 4mph /  6.4km/h 84% 0.00in /  0mm 0 W/m2
18:49 63 °F /  17.2 °C 58.1 °F /  14.5 °C 30.15in /  1020.9hPa ENE 0.3mph /  0.5km/h 4mph /  6.4km/h 84% 0.00in /  0mm 0 W/m2
18:54 63 °F /  17.2 °C 58.1 °F /  14.5 °C 30.16in /  1021.2hPa ENE 0.6mph /  1km/h 5mph /  8km/h 84% 0.00in /  0mm 0 W/m2
18:59 62.9 °F /  17.2 °C 58 °F /  14.4 °C 30.16in /  1021.2hPa ENE 0.6mph /  1km/h 5mph /  8km/h 84% 0.00in /  0mm 0 W/m2
19:04 62.9 °F /  17.2 °C 58 °F /  14.4 °C 30.15in /  1020.9hPa ENE 0.8mph /  1.3km/h 5mph /  8km/h 84% 0.00in /  0mm 0 W/m2
19:09 62.8 °F /  17.1 °C 58 °F /  14.4 °C 30.15in /  1020.9hPa Calm   5mph /  8km/h 84.2% 0.00in /  0mm 0 W/m2
19:14 62.7 °F /  17.1 °C 57.8 °F /  14.3 °C 30.15in /  1020.9hPa Calm   5mph /  8km/h 84% 0.00in /  0mm 0 W/m2
19:19 62.7 °F /  17.1 °C 58.1 °F /  14.5 °C 30.15in /  1020.9hPa Calm   5mph /  8km/h 84.8% 0.00in /  0mm 0 W/m2
19:24 62.7 °F /  17.1 °C 58.1 °F /  14.5 °C 30.15in /  1020.9hPa Calm   5mph /  8km/h 85% 0.00in /  0mm 0 W/m2
19:29 62.6 °F /  17 °C 58 °F /  14.4 °C 30.15in /  1020.9hPa NE 0.5mph /  0.8km/h 6mph /  9.7km/h 85% 0.00in /  0mm 0 W/m2
19:34 62.5 °F /  16.9 °C 57.9 °F /  14.4 °C 30.15in /  1020.9hPa ENE 0.7mph /  1.1km/h 6mph /  9.7km/h 85% 0.00in /  0mm 0 W/m2
19:39 62.5 °F /  16.9 °C 57.9 °F /  14.4 °C 30.15in /  1020.9hPa NE 1.3mph /  2.1km/h 7mph /  11.3km/h 85% 0.00in /  0mm 0 W/m2
19:44 62.4 °F /  16.9 °C 57.8 °F /  14.3 °C 30.14in /  1020.5hPa ENE 0.9mph /  1.4km/h 7mph /  11.3km/h 85% 0.00in /  0mm 0 W/m2
19:49 62.3 °F /  16.8 °C 57.7 °F /  14.3 °C 30.14in /  1020.5hPa ENE 0.5mph /  0.8km/h 7mph /  11.3km/h 85% 0.00in /  0mm 0 W/m2
19:54 62.3 °F /  16.8 °C 57.7 °F /  14.3 °C 30.14in /  1020.5hPa ENE 0.1mph /  0.2km/h 7mph /  11.3km/h 85% 0.00in /  0mm 0 W/m2
19:58 62.3 °F /  16.8 °C 57.7 °F /  14.3 °C 30.14in /  1020.5hPa ENE 0.1mph /  0.2km/h 7mph /  11.3km/h 85% 0.00in /  0mm 0 W/m2
20:04 62.2 °F /  16.8 °C 57.6 °F /  14.2 °C 30.14in /  1020.5hPa Calm     85% 0.00in /  0mm 0 W/m2
20:09 62.1 °F /  16.7 °C 57.6 °F /  14.2 °C 30.14in /  1020.5hPa ENE 0.2mph /  0.3km/h 3mph /  4.8km/h 85% 0.00in /  0mm 0 W/m2
20:14 62.1 °F /  16.7 °C 57.5 °F /  14.2 °C 30.14in /  1020.5hPa Calm   3mph /  4.8km/h 85% 0.00in /  0mm 0 W/m2
20:19 62.1 °F /  16.7 °C 57.5 °F /  14.2 °C 30.14in /  1020.5hPa ENE 0.9mph /  1.4km/h 5mph /  8km/h 85% 0.00in /  0mm 0 W/m2
20:24 62 °F /  16.7 °C 57.5 °F /  14.2 °C 30.14in /  1020.5hPa ENE 0.8mph /  1.3km/h 5mph /  8km/h 85% 0.00in /  0mm 0 W/m2
20:29 62 °F /  16.7 °C 57.7 °F /  14.3 °C 30.14in /  1020.5hPa ENE 0.8mph /  1.3km/h 5mph /  8km/h 85.8% 0.00in /  0mm 0 W/m2
20:34 62 °F /  16.7 °C 57.8 °F /  14.3 °C 30.14in /  1020.5hPa Calm   5mph /  8km/h 86% 0.00in /  0mm 0 W/m2
20:39 62 °F /  16.7 °C 57.8 °F /  14.3 °C 30.14in /  1020.5hPa Calm   3mph /  4.8km/h 86% 0.00in /  0mm 0 W/m2
20:44 61.9 °F /  16.6 °C 57.7 °F /  14.3 °C 30.15in /  1020.9hPa Calm   3mph /  4.8km/h 86% 0.00in /  0mm 0 W/m2
20:49 61.9 °F /  16.6 °C 57.7 °F /  14.3 °C 30.15in /  1020.9hPa Calm   3mph /  4.8km/h 86% 0.00in /  0mm 0 W/m2
20:54 61.9 °F /  16.6 °C 57.7 °F /  14.3 °C 30.15in /  1020.9hPa ENE 0.1mph /  0.2km/h 3mph /  4.8km/h 86% 0.00in /  0mm 0 W/m2
20:59 61.8 °F /  16.6 °C 57.7 °F /  14.3 °C 30.15in /  1020.9hPa Calm   3mph /  4.8km/h 86.3% 0.00in /  0mm 0 W/m2
21:04 61.8 °F /  16.6 °C 57.8 °F /  14.3 °C 30.15in /  1020.9hPa ENE 0.1mph /  0.2km/h 3mph /  4.8km/h 86.8% 0.00in /  0mm 0 W/m2
21:09 61.8 °F /  16.6 °C 57.9 °F /  14.4 °C 30.15in /  1020.9hPa ENE 0.2mph /  0.3km/h 3mph /  4.8km/h 87% 0.00in /  0mm 0 W/m2
21:14 61.8 °F /  16.6 °C 57.9 °F /  14.4 °C 30.15in /  1020.9hPa Calm   3mph /  4.8km/h 87% 0.00in /  0mm 0 W/m2
21:19 61.7 °F /  16.5 °C 57.8 °F /  14.3 °C 30.14in /  1020.5hPa Calm   3mph /  4.8km/h 87% 0.00in /  0mm 0 W/m2
21:24 61.7 °F /  16.5 °C 57.8 °F /  14.3 °C 30.14in /  1020.5hPa ENE 0.3mph /  0.5km/h 3mph /  4.8km/h 87% 0.00in /  0mm 0 W/m2
21:29 61.7 °F /  16.5 °C 57.8 °F /  14.3 °C 30.14in /  1020.5hPa ENE 0.1mph /  0.2km/h 3mph /  4.8km/h 87% 0.00in /  0mm 0 W/m2
21:34 61.6 °F /  16.4 °C 57.7 °F /  14.3 °C 30.14in /  1020.5hPa Calm   3mph /  4.8km/h 87% 0.00in /  0mm 0 W/m2
21:39 61.6 °F /  16.4 °C 57.7 °F /  14.3 °C 30.14in /  1020.5hPa ENE 0.4mph /  0.6km/h 4mph /  6.4km/h 87% 0.00in /  0mm 0 W/m2
21:44 61.6 °F /  16.4 °C 57.7 °F /  14.3 °C 30.14in /  1020.5hPa ENE 0.1mph /  0.2km/h 4mph /  6.4km/h 87% 0.00in /  0mm 0 W/m2
21:49 61.6 °F /  16.4 °C 57.8 °F /  14.3 °C 30.14in /  1020.5hPa NNE 0.1mph /  0.2km/h 4mph /  6.4km/h 87.2% 0.00in /  0mm 0 W/m2
21:54 61.6 °F /  16.4 °C 58 °F /  14.4 °C 30.14in /  1020.5hPa Calm   4mph /  6.4km/h 88% 0.00in /  0mm 0 W/m2
21:59 61.5 °F /  16.4 °C 58 °F /  14.4 °C 30.14in /  1020.5hPa Calm   4mph /  6.4km/h 88% 0.00in /  0mm 0 W/m2
22:04 61.5 °F /  16.4 °C 57.9 °F /  14.4 °C 30.14in /  1020.5hPa ENE 0.6mph /  1km/h 5mph /  8km/h 88% 0.00in /  0mm 0 W/m2
22:09 61.5 °F /  16.4 °C 57.9 °F /  14.4 °C 30.14in /  1020.5hPa ENE 0.5mph /  0.8km/h 5mph /  8km/h 88% 0.00in /  0mm 0 W/m2
22:14 61.5 °F /  16.4 °C 57.9 °F /  14.4 °C 30.13in /  1020.2hPa ENE 1.1mph /  1.8km/h 7mph /  11.3km/h 88% 0.00in /  0mm 0 W/m2
22:19 61.4 °F /  16.3 °C 57.9 °F /  14.4 °C 30.13in /  1020.2hPa ENE 1.2mph /  1.9km/h 7mph /  11.3km/h 88% 0.00in /  0mm 0 W/m2
22:24 61.4 °F /  16.3 °C 57.8 °F /  14.3 °C 30.13in /  1020.2hPa ENE 0.5mph /  0.8km/h 7mph /  11.3km/h 88% 0.00in /  0mm 0 W/m2
22:29 61.4 °F /  16.3 °C 58 °F /  14.4 °C 30.13in /  1020.2hPa NE 1.2mph /  1.9km/h 7mph /  11.3km/h 88.7% 0.00in /  0mm 0 W/m2
22:34 61.4 °F /  16.3 °C 58.1 °F /  14.5 °C 30.12in /  1019.9hPa ENE 0.9mph /  1.4km/h 7mph /  11.3km/h 89% 0.00in /  0mm 0 W/m2
22:39 61.4 °F /  16.3 °C 58.1 °F /  14.5 °C 30.12in /  1019.9hPa ENE 0.1mph /  0.2km/h 6mph /  9.7km/h 89% 0.00in /  0mm 0 W/m2
22:44 61.3 °F /  16.3 °C 58.1 °F /  14.5 °C 30.12in /  1019.9hPa ENE 0.2mph /  0.3km/h 6mph /  9.7km/h 89% 0.00in /  0mm 0 W/m2
22:49 61.3 °F /  16.3 °C 58 °F /  14.4 °C 30.12in /  1019.9hPa Calm   6mph /  9.7km/h 89% 0.00in /  0mm 0 W/m2
22:54 61.3 °F /  16.3 °C 58.2 °F /  14.6 °C 30.12in /  1019.9hPa Calm   6mph /  9.7km/h 89.4% 0.00in /  0mm 0 W/m2
22:59 61.2 °F /  16.2 °C 58.3 °F /  14.6 °C 30.13in /  1020.2hPa Calm   6mph /  9.7km/h 90% 0.00in /  0mm 0 W/m2
23:04 61.1 °F /  16.2 °C 58.2 °F /  14.6 °C 30.12in /  1019.9hPa NNE 0.1mph /  0.2km/h 6mph /  9.7km/h 90% 0.00in /  0mm 0 W/m2
23:09 61 °F /  16.1 °C 57.9 °F /  14.4 °C 30.13in /  1020.2hPa North 0.6mph /  1km/h 6mph /  9.7km/h 89.5% 0.00in /  0mm 0 W/m2
23:14 61 °F /  16.1 °C 58 °F /  14.4 °C 30.13in /  1020.2hPa North 0.1mph /  0.2km/h 6mph /  9.7km/h 90% 0.00in /  0mm 0 W/m2
23:19 60.9 °F /  16.1 °C 58 °F /  14.4 °C 30.12in /  1019.9hPa North 0.2mph /  0.3km/h 6mph /  9.7km/h 90% 0.00in /  0mm 0 W/m2
23:24 60.8 °F /  16 °C 57.9 °F /  14.4 °C 30.12in /  1019.9hPa NNW 1.4mph /  2.3km/h 6mph /  9.7km/h 90% 0.00in /  0mm 0 W/m2
23:29 60.7 °F /  15.9 °C 57.8 °F /  14.3 °C 30.12in /  1019.9hPa NW 0.6mph /  1km/h 10mph /  16.1km/h 90% 0.00in /  0mm 0 W/m2
23:34 60.6 °F /  15.9 °C 57.6 °F /  14.2 °C 30.12in /  1019.9hPa North 0.9mph /  1.4km/h 10mph /  16.1km/h 90% 0.00in /  0mm 0 W/m2
23:39 60.5 °F /  15.8 °C 57.5 °F /  14.2 °C 30.12in /  1019.9hPa NNE 0.9mph /  1.4km/h 10mph /  16.1km/h 90% 0.00in /  0mm 0 W/m2
23:44 60.4 °F /  15.8 °C 57.5 °F /  14.2 °C 30.12in /  1019.9hPa NNW 0.7mph /  1.1km/h 10mph /  16.1km/h 90.2% 0.00in /  0mm 0 W/m2
23:49 60.3 °F /  15.7 °C 57.7 °F /  14.3 °C 30.12in /  1019.9hPa NNW 1.2mph /  1.9km/h 10mph /  16.1km/h 91% 0.00in /  0mm 0 W/m2
23:54 60.2 °F /  15.7 °C 57.6 °F /  14.2 °C 30.12in /  1019.9hPa NNW 0.2mph /  0.3km/h 10mph /  16.1km/h 91% 0.00in /  0mm 0 W/m2
23:59 60.2 °F /  15.7 °C 57.5 °F /  14.2 °C 30.12in /  1019.9hPa NW 1.2mph /  1.9km/h 10mph /  16.1km/h 91% 0.00in /  0mm 0 W/m2
Hartford County Weather
Compliments of Weather Underground - 2 mb